sensor_id;sensor_type;location;lat;lon;timestamp;P1;durP1;ratioP1;P2;durP2;ratioP2
64520;SDS011;50896;46.714;17.322;2023-03-05T00:02:04;11.07;;;5.90;;
64520;SDS011;50896;46.714;17.322;2023-03-05T00:04:32;9.57;;;5.70;;
64520;SDS011;50896;46.714;17.322;2023-03-05T00:06:59;10.38;;;5.53;;
64520;SDS011;50896;46.714;17.322;2023-03-05T00:09:26;10.80;;;5.82;;
64520;SDS011;50896;46.714;17.322;2023-03-05T00:11:52;10.18;;;5.57;;
64520;SDS011;50896;46.714;17.322;2023-03-05T00:14:19;12.43;;;6.10;;
64520;SDS011;50896;46.714;17.322;2023-03-05T00:16:46;9.38;;;5.35;;
64520;SDS011;50896;46.714;17.322;2023-03-05T00:19:13;10.13;;;5.82;;
64520;SDS011;50896;46.714;17.322;2023-03-05T00:21:40;12.35;;;6.45;;
64520;SDS011;50896;46.714;17.322;2023-03-05T00:24:10;12.10;;;6.10;;
64520;SDS011;50896;46.714;17.322;2023-03-05T00:26:38;12.80;;;6.45;;
64520;SDS011;50896;46.714;17.322;2023-03-05T00:29:06;10.35;;;6.60;;
64520;SDS011;50896;46.714;17.322;2023-03-05T00:31:35;9.82;;;6.07;;
64520;SDS011;50896;46.714;17.322;2023-03-05T00:34:06;14.43;;;7.45;;
64520;SDS011;50896;46.714;17.322;2023-03-05T00:36:38;10.48;;;6.40;;
64520;SDS011;50896;46.714;17.322;2023-03-05T00:39:05;9.93;;;6.25;;
64520;SDS011;50896;46.714;17.322;2023-03-05T00:41:32;12.30;;;6.55;;
64520;SDS011;50896;46.714;17.322;2023-03-05T00:43:59;12.60;;;6.28;;
64520;SDS011;50896;46.714;17.322;2023-03-05T00:46:26;12.25;;;6.85;;
64520;SDS011;50896;46.714;17.322;2023-03-05T00:48:53;10.98;;;6.65;;
64520;SDS011;50896;46.714;17.322;2023-03-05T00:51:21;10.88;;;6.68;;
64520;SDS011;50896;46.714;17.322;2023-03-05T00:53:49;14.32;;;5.97;;
64520;SDS011;50896;46.714;17.322;2023-03-05T00:56:16;11.90;;;6.78;;
64520;SDS011;50896;46.714;17.322;2023-03-05T00:58:43;11.82;;;6.53;;
64520;SDS011;50896;46.714;17.322;2023-03-05T01:01:10;12.18;;;6.60;;
64520;SDS011;50896;46.714;17.322;2023-03-05T01:03:37;12.27;;;6.00;;
64520;SDS011;50896;46.714;17.322;2023-03-05T01:06:04;13.13;;;6.43;;
64520;SDS011;50896;46.714;17.322;2023-03-05T01:08:34;10.90;;;5.40;;
64520;SDS011;50896;46.714;17.322;2023-03-05T01:11:02;11.60;;;5.35;;
64520;SDS011;50896;46.714;17.322;2023-03-05T01:13:29;9.20;;;5.65;;
64520;SDS011;50896;46.714;17.322;2023-03-05T01:15:56;13.73;;;6.18;;
64520;SDS011;50896;46.714;17.322;2023-03-05T01:18:23;11.60;;;5.95;;
64520;SDS011;50896;46.714;17.322;2023-03-05T01:20:50;8.40;;;5.28;;
64520;SDS011;50896;46.714;17.322;2023-03-05T01:23:17;11.27;;;5.45;;
64520;SDS011;50896;46.714;17.322;2023-03-05T01:25:44;14.02;;;5.47;;
64520;SDS011;50896;46.714;17.322;2023-03-05T01:28:11;9.80;;;5.38;;
64520;SDS011;50896;46.714;17.322;2023-03-05T01:30:37;10.05;;;5.68;;
64520;SDS011;50896;46.714;17.322;2023-03-05T01:33:04;10.10;;;5.68;;
64520;SDS011;50896;46.714;17.322;2023-03-05T01:35:31;11.55;;;5.82;;
64520;SDS011;50896;46.714;17.322;2023-03-05T01:37:58;10.38;;;5.60;;
64520;SDS011;50896;46.714;17.322;2023-03-05T01:40:26;9.32;;;5.35;;
64520;SDS011;50896;46.714;17.322;2023-03-05T01:42:56;10.13;;;5.35;;
64520;SDS011;50896;46.714;17.322;2023-03-05T01:54:47;11.52;;;5.70;;
64520;SDS011;50896;46.714;17.322;2023-03-05T01:57:24;11.13;;;5.47;;
64520;SDS011;50896;46.714;17.322;2023-03-05T01:59:57;9.95;;;5.38;;
64520;SDS011;50896;46.714;17.322;2023-03-05T02:02:38;9.52;;;5.53;;
64520;SDS011;50896;46.714;17.322;2023-03-05T02:05:07;13.85;;;6.32;;
64520;SDS011;50896;46.714;17.322;2023-03-05T02:07:38;11.00;;;6.25;;
64520;SDS011;50896;46.714;17.322;2023-03-05T02:10:18;12.90;;;5.88;;
64520;SDS011;50896;46.714;17.322;2023-03-05T02:12:47;13.05;;;6.13;;
64520;SDS011;50896;46.714;17.322;2023-03-05T02:15:16;11.93;;;6.90;;
64520;SDS011;50896;46.714;17.322;2023-03-05T02:17:43;12.88;;;6.60;;
64520;SDS011;50896;46.714;17.322;2023-03-05T02:20:12;10.40;;;6.10;;
64520;SDS011;50896;46.714;17.322;2023-03-05T02:22:41;13.27;;;7.22;;
64520;SDS011;50896;46.714;17.322;2023-03-05T02:25:13;13.27;;;7.70;;
64520;SDS011;50896;46.714;17.322;2023-03-05T02:27:43;13.65;;;7.35;;
64520;SDS011;50896;46.714;17.322;2023-03-05T02:30:17;12.68;;;6.53;;
64520;SDS011;50896;46.714;17.322;2023-03-05T02:32:45;12.27;;;7.35;;
64520;SDS011;50896;46.714;17.322;2023-03-05T02:35:12;11.93;;;6.68;;
64520;SDS011;50896;46.714;17.322;2023-03-05T02:37:39;12.98;;;6.53;;
64520;SDS011;50896;46.714;17.322;2023-03-05T02:40:06;11.70;;;6.88;;
64520;SDS011;50896;46.714;17.322;2023-03-05T02:42:34;11.07;;;6.45;;
64520;SDS011;50896;46.714;17.322;2023-03-05T02:45:02;12.13;;;6.50;;
64520;SDS011;50896;46.714;17.322;2023-03-05T02:47:30;10.93;;;6.07;;
64520;SDS011;50896;46.714;17.322;2023-03-05T02:49:57;9.27;;;6.00;;
64520;SDS011;50896;46.714;17.322;2023-03-05T02:52:24;9.48;;;5.50;;
64520;SDS011;50896;46.714;17.322;2023-03-05T02:54:52;14.40;;;5.18;;
64520;SDS011;50896;46.714;17.322;2023-03-05T02:57:21;8.97;;;5.30;;
64520;SDS011;50896;46.714;17.322;2023-03-05T02:59:48;9.57;;;5.50;;
64520;SDS011;50896;46.714;17.322;2023-03-05T03:02:15;10.27;;;5.15;;
64520;SDS011;50896;46.714;17.322;2023-03-05T03:04:43;12.07;;;6.10;;
64520;SDS011;50896;46.714;17.322;2023-03-05T03:07:11;7.90;;;5.10;;
64520;SDS011;50896;46.714;17.322;2023-03-05T03:09:38;9.63;;;5.28;;
64520;SDS011;50896;46.714;17.322;2023-03-05T03:12:05;11.18;;;5.47;;
64520;SDS011;50896;46.714;17.322;2023-03-05T03:14:35;8.63;;;5.10;;
64520;SDS011;50896;46.714;17.322;2023-03-05T03:17:05;10.82;;;5.05;;
64520;SDS011;50896;46.714;17.322;2023-03-05T03:19:36;9.15;;;5.28;;
64520;SDS011;50896;46.714;17.322;2023-03-05T03:22:04;10.90;;;5.35;;
64520;SDS011;50896;46.714;17.322;2023-03-05T03:24:32;9.93;;;5.00;;
64520;SDS011;50896;46.714;17.322;2023-03-05T03:27:00;9.52;;;4.45;;
64520;SDS011;50896;46.714;17.322;2023-03-05T03:29:27;10.48;;;5.50;;
64520;SDS011;50896;46.714;17.322;2023-03-05T03:31:54;8.27;;;4.82;;
64520;SDS011;50896;46.714;17.322;2023-03-05T03:34:22;7.68;;;4.82;;
64520;SDS011;50896;46.714;17.322;2023-03-05T03:36:49;9.68;;;4.80;;
64520;SDS011;50896;46.714;17.322;2023-03-05T03:39:19;9.10;;;4.55;;
64520;SDS011;50896;46.714;17.322;2023-03-05T03:41:48;7.87;;;4.73;;
64520;SDS011;50896;46.714;17.322;2023-03-05T03:44:17;8.77;;;5.05;;
64520;SDS011;50896;46.714;17.322;2023-03-05T03:46:45;8.70;;;5.03;;
64520;SDS011;50896;46.714;17.322;2023-03-05T03:49:17;10.38;;;5.05;;
64520;SDS011;50896;46.714;17.322;2023-03-05T03:51:47;9.93;;;5.13;;
64520;SDS011;50896;46.714;17.322;2023-03-05T03:54:15;10.43;;;5.22;;
64520;SDS011;50896;46.714;17.322;2023-03-05T03:56:43;7.47;;;4.70;;
64520;SDS011;50896;46.714;17.322;2023-03-05T03:59:10;7.78;;;4.90;;
64520;SDS011;50896;46.714;17.322;2023-03-05T04:01:38;7.05;;;4.65;;
64520;SDS011;50896;46.714;17.322;2023-03-05T04:04:05;11.35;;;5.40;;
64520;SDS011;50896;46.714;17.322;2023-03-05T04:06:33;9.30;;;4.82;;
64520;SDS011;50896;46.714;17.322;2023-03-05T04:09:00;9.15;;;4.60;;
64520;SDS011;50896;46.714;17.322;2023-03-05T04:11:26;9.55;;;4.72;;
64520;SDS011;50896;46.714;17.322;2023-03-05T04:13:53;8.15;;;4.97;;
64520;SDS011;50896;46.714;17.322;2023-03-05T04:16:20;7.95;;;4.35;;
64520;SDS011;50896;46.714;17.322;2023-03-05T04:18:47;9.15;;;5.00;;
64520;SDS011;50896;46.714;17.322;2023-03-05T04:21:14;11.10;;;4.97;;
64520;SDS011;50896;46.714;17.322;2023-03-05T04:23:41;8.45;;;5.20;;
64520;SDS011;50896;46.714;17.322;2023-03-05T04:26:08;13.00;;;5.80;;
64520;SDS011;50896;46.714;17.322;2023-03-05T04:28:35;11.82;;;6.20;;
64520;SDS011;50896;46.714;17.322;2023-03-05T04:31:01;11.70;;;6.00;;
64520;SDS011;50896;46.714;17.322;2023-03-05T04:33:29;11.85;;;6.30;;
64520;SDS011;50896;46.714;17.322;2023-03-05T04:35:56;11.60;;;6.50;;
64520;SDS011;50896;46.714;17.322;2023-03-05T04:38:23;11.00;;;6.28;;
64520;SDS011;50896;46.714;17.322;2023-03-05T04:40:50;11.55;;;7.00;;
64520;SDS011;50896;46.714;17.322;2023-03-05T04:43:17;14.38;;;6.65;;
64520;SDS011;50896;46.714;17.322;2023-03-05T04:45:44;11.57;;;6.38;;
64520;SDS011;50896;46.714;17.322;2023-03-05T04:48:11;12.23;;;6.60;;
64520;SDS011;50896;46.714;17.322;2023-03-05T04:50:38;10.38;;;5.95;;
64520;SDS011;50896;46.714;17.322;2023-03-05T04:53:05;14.77;;;7.30;;
64520;SDS011;50896;46.714;17.322;2023-03-05T04:55:32;13.00;;;6.50;;
64520;SDS011;50896;46.714;17.322;2023-03-05T04:57:59;12.80;;;6.93;;
64520;SDS011;50896;46.714;17.322;2023-03-05T05:00:26;12.63;;;7.20;;
64520;SDS011;50896;46.714;17.322;2023-03-05T05:02:52;12.05;;;6.20;;
64520;SDS011;50896;46.714;17.322;2023-03-05T05:05:21;13.90;;;6.43;;
64520;SDS011;50896;46.714;17.322;2023-03-05T05:07:49;10.70;;;6.22;;
64520;SDS011;50896;46.714;17.322;2023-03-05T05:10:19;11.75;;;6.25;;
64520;SDS011;50896;46.714;17.322;2023-03-05T05:12:46;12.80;;;6.90;;
64520;SDS011;50896;46.714;17.322;2023-03-05T05:15:13;11.98;;;6.57;;
64520;SDS011;50896;46.714;17.322;2023-03-05T05:17:40;15.18;;;6.68;;
64520;SDS011;50896;46.714;17.322;2023-03-05T05:20:07;11.43;;;5.90;;
64520;SDS011;50896;46.714;17.322;2023-03-05T05:25:03;11.48;;;5.88;;
64520;SDS011;50896;46.714;17.322;2023-03-05T05:27:30;12.43;;;6.15;;
64520;SDS011;50896;46.714;17.322;2023-03-05T05:29:57;12.32;;;6.63;;
64520;SDS011;50896;46.714;17.322;2023-03-05T05:32:24;15.73;;;7.72;;
64520;SDS011;50896;46.714;17.322;2023-03-05T05:34:55;19.08;;;10.32;;
64520;SDS011;50896;46.714;17.322;2023-03-05T05:37:23;16.75;;;9.52;;
64520;SDS011;50896;46.714;17.322;2023-03-05T05:39:51;36.95;;;17.38;;
64520;SDS011;50896;46.714;17.322;2023-03-05T05:42:20;55.38;;;25.02;;
64520;SDS011;50896;46.714;17.322;2023-03-05T05:44:49;21.52;;;11.02;;
64520;SDS011;50896;46.714;17.322;2023-03-05T05:47:16;21.67;;;10.48;;
64520;SDS011;50896;46.714;17.322;2023-03-05T05:49:43;17.77;;;10.30;;
64520;SDS011;50896;46.714;17.322;2023-03-05T05:52:10;13.95;;;8.35;;
64520;SDS011;50896;46.714;17.322;2023-03-05T05:54:37;17.10;;;8.55;;
64520;SDS011;50896;46.714;17.322;2023-03-05T05:57:05;15.23;;;9.23;;
64520;SDS011;50896;46.714;17.322;2023-03-05T05:59:32;36.13;;;24.48;;
64520;SDS011;50896;46.714;17.322;2023-03-05T06:01:59;23.63;;;14.00;;
64520;SDS011;50896;46.714;17.322;2023-03-05T06:04:25;17.70;;;10.68;;
64520;SDS011;50896;46.714;17.322;2023-03-05T06:06:52;19.58;;;9.98;;
64520;SDS011;50896;46.714;17.322;2023-03-05T06:09:19;14.68;;;8.38;;
64520;SDS011;50896;46.714;17.322;2023-03-05T06:11:46;15.45;;;9.27;;
64520;SDS011;50896;46.714;17.322;2023-03-05T06:14:13;20.77;;;11.15;;
64520;SDS011;50896;46.714;17.322;2023-03-05T06:16:40;19.52;;;10.13;;
64520;SDS011;50896;46.714;17.322;2023-03-05T06:19:15;19.55;;;10.25;;
64520;SDS011;50896;46.714;17.322;2023-03-05T06:21:42;31.35;;;16.00;;
64520;SDS011;50896;46.714;17.322;2023-03-05T06:24:09;28.63;;;14.95;;
64520;SDS011;50896;46.714;17.322;2023-03-05T06:26:37;37.63;;;20.00;;
64520;SDS011;50896;46.714;17.322;2023-03-05T06:29:04;31.23;;;16.65;;
64520;SDS011;50896;46.714;17.322;2023-03-05T06:31:31;25.80;;;12.77;;
64520;SDS011;50896;46.714;17.322;2023-03-05T06:33:59;21.10;;;11.55;;
64520;SDS011;50896;46.714;17.322;2023-03-05T06:36:29;21.60;;;11.40;;
64520;SDS011;50896;46.714;17.322;2023-03-05T06:38:56;26.35;;;11.57;;
64520;SDS011;50896;46.714;17.322;2023-03-05T06:41:25;22.13;;;11.68;;
64520;SDS011;50896;46.714;17.322;2023-03-05T06:43:53;21.02;;;10.60;;
64520;SDS011;50896;46.714;17.322;2023-03-05T06:46:28;21.98;;;12.05;;
64520;SDS011;50896;46.714;17.322;2023-03-05T06:48:57;18.80;;;11.50;;
64520;SDS011;50896;46.714;17.322;2023-03-05T06:53:55;25.67;;;11.68;;
64520;SDS011;50896;46.714;17.322;2023-03-05T06:56:24;23.88;;;11.75;;
64520;SDS011;50896;46.714;17.322;2023-03-05T06:58:51;23.40;;;11.52;;
64520;SDS011;50896;46.714;17.322;2023-03-05T07:01:18;21.58;;;11.57;;
64520;SDS011;50896;46.714;17.322;2023-03-05T07:03:50;21.67;;;12.25;;
64520;SDS011;50896;46.714;17.322;2023-03-05T07:06:20;19.90;;;10.77;;
64520;SDS011;50896;46.714;17.322;2023-03-05T07:08:47;24.30;;;11.77;;
64520;SDS011;50896;46.714;17.322;2023-03-05T07:11:18;20.60;;;11.10;;
64520;SDS011;50896;46.714;17.322;2023-03-05T07:13:46;20.85;;;11.38;;
64520;SDS011;50896;46.714;17.322;2023-03-05T07:16:15;20.88;;;10.95;;
64520;SDS011;50896;46.714;17.322;2023-03-05T07:18:50;20.73;;;11.85;;
64520;SDS011;50896;46.714;17.322;2023-03-05T07:21:18;20.90;;;10.80;;
64520;SDS011;50896;46.714;17.322;2023-03-05T07:23:48;19.75;;;11.73;;
64520;SDS011;50896;46.714;17.322;2023-03-05T07:26:15;21.50;;;11.85;;
64520;SDS011;50896;46.714;17.322;2023-03-05T07:28:42;20.35;;;11.68;;
64520;SDS011;50896;46.714;17.322;2023-03-05T07:31:13;20.90;;;11.15;;
64520;SDS011;50896;46.714;17.322;2023-03-05T07:33:42;23.00;;;12.23;;
64520;SDS011;50896;46.714;17.322;2023-03-05T07:36:09;21.00;;;11.57;;
64520;SDS011;50896;46.714;17.322;2023-03-05T07:38:37;23.15;;;12.02;;
64520;SDS011;50896;46.714;17.322;2023-03-05T07:41:04;25.08;;;12.82;;
64520;SDS011;50896;46.714;17.322;2023-03-05T07:43:34;26.83;;;13.38;;
64520;SDS011;50896;46.714;17.322;2023-03-05T07:46:08;23.20;;;13.00;;
64520;SDS011;50896;46.714;17.322;2023-03-05T07:48:37;23.90;;;12.95;;
64520;SDS011;50896;46.714;17.322;2023-03-05T07:51:05;21.35;;;11.98;;
64520;SDS011;50896;46.714;17.322;2023-03-05T07:53:34;21.77;;;12.18;;
64520;SDS011;50896;46.714;17.322;2023-03-05T07:56:01;26.00;;;13.60;;
64520;SDS011;50896;46.714;17.322;2023-03-05T07:58:28;25.65;;;12.98;;
64520;SDS011;50896;46.714;17.322;2023-03-05T08:00:55;19.40;;;12.27;;
64520;SDS011;50896;46.714;17.322;2023-03-05T08:03:22;22.13;;;12.25;;
64520;SDS011;50896;46.714;17.322;2023-03-05T08:05:48;26.88;;;13.32;;
64520;SDS011;50896;46.714;17.322;2023-03-05T08:08:15;23.00;;;12.63;;
64520;SDS011;50896;46.714;17.322;2023-03-05T08:10:42;22.75;;;13.15;;
64520;SDS011;50896;46.714;17.322;2023-03-05T08:13:09;24.75;;;12.85;;
64520;SDS011;50896;46.714;17.322;2023-03-05T08:15:36;23.08;;;12.45;;
64520;SDS011;50896;46.714;17.322;2023-03-05T08:18:04;22.30;;;13.05;;
64520;SDS011;50896;46.714;17.322;2023-03-05T08:20:33;34.95;;;12.63;;
64520;SDS011;50896;46.714;17.322;2023-03-05T08:23:02;21.63;;;12.90;;
64520;SDS011;50896;46.714;17.322;2023-03-05T08:25:29;21.40;;;12.15;;
64520;SDS011;50896;46.714;17.322;2023-03-05T08:27:57;21.83;;;12.43;;
64520;SDS011;50896;46.714;17.322;2023-03-05T08:30:23;22.63;;;12.10;;
64520;SDS011;50896;46.714;17.322;2023-03-05T08:32:53;20.88;;;12.90;;
64520;SDS011;50896;46.714;17.322;2023-03-05T08:35:21;23.52;;;13.23;;
64520;SDS011;50896;46.714;17.322;2023-03-05T08:37:48;23.33;;;12.48;;
64520;SDS011;50896;46.714;17.322;2023-03-05T08:40:15;22.02;;;12.07;;
64520;SDS011;50896;46.714;17.322;2023-03-05T08:42:45;21.15;;;11.65;;
64520;SDS011;50896;46.714;17.322;2023-03-05T08:45:12;22.50;;;12.88;;
64520;SDS011;50896;46.714;17.322;2023-03-05T08:47:39;20.55;;;11.50;;
64520;SDS011;50896;46.714;17.322;2023-03-05T08:50:06;21.92;;;12.05;;
64520;SDS011;50896;46.714;17.322;2023-03-05T08:52:33;20.13;;;11.75;;
64520;SDS011;50896;46.714;17.322;2023-03-05T08:55:00;21.98;;;12.75;;
64520;SDS011;50896;46.714;17.322;2023-03-05T08:57:27;23.27;;;12.60;;
64520;SDS011;50896;46.714;17.322;2023-03-05T08:59:54;25.23;;;12.82;;
64520;SDS011;50896;46.714;17.322;2023-03-05T09:02:21;22.17;;;12.98;;
64520;SDS011;50896;46.714;17.322;2023-03-05T09:04:48;24.13;;;13.18;;
64520;SDS011;50896;46.714;17.322;2023-03-05T09:07:15;22.33;;;12.82;;
64520;SDS011;50896;46.714;17.322;2023-03-05T09:09:42;21.77;;;12.50;;
64520;SDS011;50896;46.714;17.322;2023-03-05T09:12:09;25.52;;;14.00;;
64520;SDS011;50896;46.714;17.322;2023-03-05T09:14:38;23.67;;;12.85;;
64520;SDS011;50896;46.714;17.322;2023-03-05T09:17:06;27.75;;;13.40;;
64520;SDS011;50896;46.714;17.322;2023-03-05T09:19:33;27.33;;;15.02;;
64520;SDS011;50896;46.714;17.322;2023-03-05T09:22:00;20.80;;;12.90;;
64520;SDS011;50896;46.714;17.322;2023-03-05T09:24:27;22.45;;;12.95;;
64520;SDS011;50896;46.714;17.322;2023-03-05T09:26:56;22.05;;;12.82;;
64520;SDS011;50896;46.714;17.322;2023-03-05T09:29:25;22.13;;;12.93;;
64520;SDS011;50896;46.714;17.322;2023-03-05T09:31:52;23.23;;;12.82;;
64520;SDS011;50896;46.714;17.322;2023-03-05T09:34:19;22.05;;;12.57;;
64520;SDS011;50896;46.714;17.322;2023-03-05T09:36:47;20.15;;;12.25;;
64520;SDS011;50896;46.714;17.322;2023-03-05T09:39:14;23.42;;;12.95;;
64520;SDS011;50896;46.714;17.322;2023-03-05T09:42:03;22.35;;;12.85;;
64520;SDS011;50896;46.714;17.322;2023-03-05T09:55:11;22.17;;;13.85;;
64520;SDS011;50896;46.714;17.322;2023-03-05T09:57:41;21.80;;;12.10;;
64520;SDS011;50896;46.714;17.322;2023-03-05T10:00:19;22.92;;;13.35;;
64520;SDS011;50896;46.714;17.322;2023-03-05T10:02:52;25.20;;;12.13;;
64520;SDS011;50896;46.714;17.322;2023-03-05T10:05:25;18.58;;;11.77;;
64520;SDS011;50896;46.714;17.322;2023-03-05T10:08:11;24.20;;;13.43;;
64520;SDS011;50896;46.714;17.322;2023-03-05T10:10:43;25.63;;;12.18;;
64520;SDS011;50896;46.714;17.322;2023-03-05T10:13:37;20.85;;;11.10;;
64520;SDS011;50896;46.714;17.322;2023-03-05T10:21:37;18.88;;;10.63;;
64520;SDS011;50896;46.714;17.322;2023-03-05T10:24:18;20.10;;;11.20;;
64520;SDS011;50896;46.714;17.322;2023-03-05T10:33:26;20.58;;;11.05;;
64520;SDS011;50896;46.714;17.322;2023-03-05T10:44:36;19.42;;;11.15;;
64520;SDS011;50896;46.714;17.322;2023-03-05T10:47:13;21.33;;;11.77;;
64520;SDS011;50896;46.714;17.322;2023-03-05T10:49:49;21.90;;;10.88;;
64520;SDS011;50896;46.714;17.322;2023-03-05T10:54:52;15.70;;;9.63;;
64520;SDS011;50896;46.714;17.322;2023-03-05T10:57:26;13.98;;;8.93;;
64520;SDS011;50896;46.714;17.322;2023-03-05T11:02:32;14.68;;;9.85;;
64520;SDS011;50896;46.714;17.322;2023-03-05T11:04:59;17.52;;;10.23;;
64520;SDS011;50896;46.714;17.322;2023-03-05T11:07:29;20.02;;;9.35;;
64520;SDS011;50896;46.714;17.322;2023-03-05T11:10:15;17.50;;;10.25;;
64520;SDS011;50896;46.714;17.322;2023-03-05T11:12:43;15.98;;;9.48;;
64520;SDS011;50896;46.714;17.322;2023-03-05T11:17:41;16.55;;;9.60;;
64520;SDS011;50896;46.714;17.322;2023-03-05T11:20:22;15.45;;;9.30;;
64520;SDS011;50896;46.714;17.322;2023-03-05T11:25:30;15.00;;;8.93;;
64520;SDS011;50896;46.714;17.322;2023-03-05T11:28:00;14.63;;;9.02;;
64520;SDS011;50896;46.714;17.322;2023-03-05T11:30:32;16.40;;;9.63;;
64520;SDS011;50896;46.714;17.322;2023-03-05T11:33:17;14.82;;;9.43;;
64520;SDS011;50896;46.714;17.322;2023-03-05T11:35:48;15.13;;;9.23;;
64520;SDS011;50896;46.714;17.322;2023-03-05T11:38:21;12.65;;;8.48;;
64520;SDS011;50896;46.714;17.322;2023-03-05T11:40:51;16.88;;;9.57;;
64520;SDS011;50896;46.714;17.322;2023-03-05T11:43:22;16.17;;;9.43;;
64520;SDS011;50896;46.714;17.322;2023-03-05T11:45:52;14.95;;;8.50;;
64520;SDS011;50896;46.714;17.322;2023-03-05T11:50:59;11.43;;;8.18;;
64520;SDS011;50896;46.714;17.322;2023-03-05T11:53:32;14.82;;;8.90;;
64520;SDS011;50896;46.714;17.322;2023-03-05T12:01:13;15.80;;;9.27;;
64520;SDS011;50896;46.714;17.322;2023-03-05T12:03:42;17.58;;;10.60;;
64520;SDS011;50896;46.714;17.322;2023-03-05T12:08:52;15.40;;;9.23;;
64520;SDS011;50896;46.714;17.322;2023-03-05T12:11:26;13.38;;;8.75;;
64520;SDS011;50896;46.714;17.322;2023-03-05T12:14:33;19.17;;;10.95;;
64520;SDS011;50896;46.714;17.322;2023-03-05T12:17:03;26.05;;;13.73;;
64520;SDS011;50896;46.714;17.322;2023-03-05T12:19:40;21.98;;;11.93;;
64520;SDS011;50896;46.714;17.322;2023-03-05T12:22:18;29.73;;;18.02;;
64520;SDS011;50896;46.714;17.322;2023-03-05T12:24:48;19.92;;;11.75;;
64520;SDS011;50896;46.714;17.322;2023-03-05T12:27:35;23.98;;;13.15;;
64520;SDS011;50896;46.714;17.322;2023-03-05T12:30:02;20.88;;;12.45;;
64520;SDS011;50896;46.714;17.322;2023-03-05T12:34:58;17.67;;;10.95;;
64520;SDS011;50896;46.714;17.322;2023-03-05T12:47:44;18.83;;;10.98;;
64520;SDS011;50896;46.714;17.322;2023-03-05T12:58:34;16.02;;;9.48;;
64520;SDS011;50896;46.714;17.322;2023-03-05T13:04:16;16.23;;;9.65;;
64520;SDS011;50896;46.714;17.322;2023-03-05T13:06:56;17.35;;;10.27;;
64520;SDS011;50896;46.714;17.322;2023-03-05T13:09:29;18.50;;;9.98;;
64520;SDS011;50896;46.714;17.322;2023-03-05T13:11:59;14.90;;;9.73;;
64520;SDS011;50896;46.714;17.322;2023-03-05T13:14:46;17.55;;;11.05;;
64520;SDS011;50896;46.714;17.322;2023-03-05T13:17:39;49.47;;;26.63;;
64520;SDS011;50896;46.714;17.322;2023-03-05T13:23:17;15.32;;;8.65;;
64520;SDS011;50896;46.714;17.322;2023-03-05T13:25:56;16.08;;;8.95;;
64520;SDS011;50896;46.714;17.322;2023-03-05T13:28:26;16.25;;;8.60;;
64520;SDS011;50896;46.714;17.322;2023-03-05T13:30:55;16.20;;;8.27;;
64520;SDS011;50896;46.714;17.322;2023-03-05T13:33:26;13.80;;;8.35;;
64520;SDS011;50896;46.714;17.322;2023-03-05T13:35:55;15.48;;;9.23;;
64520;SDS011;50896;46.714;17.322;2023-03-05T13:41:27;14.15;;;8.40;;
64520;SDS011;50896;46.714;17.322;2023-03-05T13:43:54;15.00;;;8.98;;
64520;SDS011;50896;46.714;17.322;2023-03-05T13:46:36;15.95;;;8.60;;
64520;SDS011;50896;46.714;17.322;2023-03-05T13:51:51;16.90;;;9.57;;
64520;SDS011;50896;46.714;17.322;2023-03-05T13:54:20;18.35;;;9.32;;
64520;SDS011;50896;46.714;17.322;2023-03-05T13:56:52;16.20;;;8.80;;
64520;SDS011;50896;46.714;17.322;2023-03-05T13:59:25;14.15;;;8.93;;
64520;SDS011;50896;46.714;17.322;2023-03-05T14:01:57;52.00;;;27.10;;
64520;SDS011;50896;46.714;17.322;2023-03-05T14:04:27;58.65;;;28.80;;
64520;SDS011;50896;46.714;17.322;2023-03-05T14:07:00;181.07;;;85.30;;
64520;SDS011;50896;46.714;17.322;2023-03-05T14:09:30;173.90;;;83.63;;
64520;SDS011;50896;46.714;17.322;2023-03-05T14:12:25;48.72;;;20.88;;
64520;SDS011;50896;46.714;17.322;2023-03-05T14:14:57;15.90;;;9.90;;
64520;SDS011;50896;46.714;17.322;2023-03-05T14:17:43;19.05;;;12.02;;
64520;SDS011;50896;46.714;17.322;2023-03-05T14:20:21;18.55;;;9.60;;
64520;SDS011;50896;46.714;17.322;2023-03-05T14:22:50;15.23;;;8.48;;
64520;SDS011;50896;46.714;17.322;2023-03-05T14:25:32;33.47;;;15.02;;
64520;SDS011;50896;46.714;17.322;2023-03-05T14:28:06;15.15;;;8.07;;
64520;SDS011;50896;46.714;17.322;2023-03-05T14:30:45;13.93;;;8.63;;
64520;SDS011;50896;46.714;17.322;2023-03-05T14:33:13;16.05;;;8.63;;
64520;SDS011;50896;46.714;17.322;2023-03-05T14:35:40;50.25;;;22.70;;
64520;SDS011;50896;46.714;17.322;2023-03-05T14:38:18;17.73;;;10.35;;
64520;SDS011;50896;46.714;17.322;2023-03-05T14:40:49;11.93;;;7.38;;
64520;SDS011;50896;46.714;17.322;2023-03-05T14:43:16;13.65;;;8.20;;
64520;SDS011;50896;46.714;17.322;2023-03-05T14:45:43;54.05;;;29.45;;
64520;SDS011;50896;46.714;17.322;2023-03-05T14:48:11;15.32;;;8.27;;
64520;SDS011;50896;46.714;17.322;2023-03-05T14:53:27;14.90;;;9.25;;
64520;SDS011;50896;46.714;17.322;2023-03-05T14:55:58;23.80;;;14.20;;
64520;SDS011;50896;46.714;17.322;2023-03-05T14:58:29;18.40;;;10.55;;
64520;SDS011;50896;46.714;17.322;2023-03-05T15:00:58;26.13;;;13.63;;
64520;SDS011;50896;46.714;17.322;2023-03-05T15:03:25;14.00;;;7.82;;
64520;SDS011;50896;46.714;17.322;2023-03-05T15:05:54;14.25;;;7.47;;
64520;SDS011;50896;46.714;17.322;2023-03-05T15:08:24;13.73;;;8.07;;
64520;SDS011;50896;46.714;17.322;2023-03-05T15:10:55;15.75;;;8.05;;
64520;SDS011;50896;46.714;17.322;2023-03-05T15:13:22;16.00;;;8.85;;
64520;SDS011;50896;46.714;17.322;2023-03-05T15:15:49;21.65;;;10.57;;
64520;SDS011;50896;46.714;17.322;2023-03-05T15:18:18;16.48;;;9.40;;
64520;SDS011;50896;46.714;17.322;2023-03-05T15:20:46;13.45;;;7.60;;
64520;SDS011;50896;46.714;17.322;2023-03-05T15:23:14;12.23;;;7.32;;
64520;SDS011;50896;46.714;17.322;2023-03-05T15:25:41;16.05;;;8.40;;
64520;SDS011;50896;46.714;17.322;2023-03-05T15:28:08;17.13;;;9.18;;
64520;SDS011;50896;46.714;17.322;2023-03-05T15:30:39;14.38;;;7.40;;
64520;SDS011;50896;46.714;17.322;2023-03-05T15:33:10;15.82;;;8.20;;
64520;SDS011;50896;46.714;17.322;2023-03-05T15:35:39;14.90;;;8.10;;
64520;SDS011;50896;46.714;17.322;2023-03-05T15:38:06;21.55;;;9.30;;
64520;SDS011;50896;46.714;17.322;2023-03-05T15:40:34;18.17;;;9.23;;
64520;SDS011;50896;46.714;17.322;2023-03-05T15:43:00;16.17;;;8.88;;
64520;SDS011;50896;46.714;17.322;2023-03-05T15:45:27;15.80;;;8.52;;
64520;SDS011;50896;46.714;17.322;2023-03-05T15:47:57;18.77;;;9.60;;
64520;SDS011;50896;46.714;17.322;2023-03-05T15:50:24;15.57;;;8.05;;
64520;SDS011;50896;46.714;17.322;2023-03-05T15:52:51;14.70;;;8.60;;
64520;SDS011;50896;46.714;17.322;2023-03-05T15:55:18;14.70;;;8.40;;
64520;SDS011;50896;46.714;17.322;2023-03-05T15:57:49;16.40;;;8.52;;
64520;SDS011;50896;46.714;17.322;2023-03-05T16:00:18;15.60;;;8.07;;
64520;SDS011;50896;46.714;17.322;2023-03-05T16:02:51;19.48;;;10.27;;
64520;SDS011;50896;46.714;17.322;2023-03-05T16:05:18;32.25;;;15.27;;
64520;SDS011;50896;46.714;17.322;2023-03-05T16:07:45;28.90;;;14.18;;
64520;SDS011;50896;46.714;17.322;2023-03-05T16:10:18;31.13;;;14.30;;
64520;SDS011;50896;46.714;17.322;2023-03-05T16:12:49;24.42;;;12.70;;
64520;SDS011;50896;46.714;17.322;2023-03-05T16:15:18;19.30;;;9.43;;